Time;durP1;ratioP1;P1;durP2;ratioP2;P2;SDS_P1;SDS_P2;PMS_P1;PMS_P2;Temp;Humidity;BMP_temperature;BMP_pressure;BME280_temperature;BME280_humidity;BME280_pressure;Samples;Min_cycle;Max_cycle;Signal;HPM_P1;HPM_P2
2024/02/20 00:01:36;;;;;;;54.15;30.02;;;;;;;6.37;56.50;94386.03;5050446;28;20055;-74
2024/02/20 00:04:01;;;;;;;50.13;29.60;;;;;;;6.52;56.21;94403.63;5050777;28;20044;-74
2024/02/20 00:06:27;;;;;;;53.08;27.58;;;;;;;6.46;56.26;94387.03;5050886;28;20025;-74
2024/02/20 00:08:52;;;;;;;56.88;29.25;;;;;;;6.63;56.22;94400.69;5050705;28;20017;-74
2024/02/20 00:11:18;;;;;;;48.17;27.08;;;;;;;6.40;56.11;94372.28;5051419;28;20021;-74
2024/02/20 00:13:44;;;;;;;54.38;29.90;;;;;;;6.61;56.03;94413.38;5051038;28;20494;-74
2024/02/20 00:16:09;;;;;;;47.35;27.60;;;;;;;6.58;56.37;94423.69;5050472;28;20520;-74
2024/02/20 00:18:35;;;;;;;46.90;27.20;;;;;;;6.56;56.73;94415.25;5050543;28;20269;-75
2024/02/20 00:21:01;;;;;;;54.13;29.55;;;;;;;6.49;56.40;94401.56;5050808;28;20025;-74
2024/02/20 00:23:26;;;;;;;46.47;27.92;;;;;;;6.57;56.70;94401.75;5051080;28;20487;-74
2024/02/20 00:25:52;;;;;;;49.20;28.02;;;;;;;6.59;56.15;94399.66;5050805;28;20103;-75
2024/02/20 00:28:18;;;;;;;49.15;28.02;;;;;;;6.65;55.88;94400.41;5050566;28;20029;-75
2024/02/20 00:30:44;;;;;;;48.13;28.50;;;;;;;6.67;56.17;94400.91;5050644;28;20033;-75
2024/02/20 00:33:10;;;;;;;52.45;28.83;;;;;;;6.69;56.04;94407.53;5050740;28;20167;-74
2024/02/20 00:35:35;;;;;;;44.72;26.50;;;;;;;6.41;56.08;94376.47;5051103;28;20040;-74
2024/02/20 00:38:01;;;;;;;48.65;28.75;;;;;;;6.47;56.68;94398.38;5052117;28;20498;-74
2024/02/20 00:40:26;;;;;;;48.67;28.40;;;;;;;6.47;56.75;94395.75;5053431;28;20045;-75
2024/02/20 00:42:51;;;;;;;46.75;26.85;;;;;;;6.26;56.40;94355.44;5053070;28;20033;-74
2024/02/20 00:45:17;;;;;;;47.00;26.85;;;;;;;6.64;55.80;94396.19;5053078;28;20033;-74
2024/02/20 00:47:43;;;;;;;48.45;26.38;;;;;;;6.67;55.66;94396.41;5053725;28;20032;-74
2024/02/20 00:50:09;;;;;;;43.63;25.98;;;;;;;6.49;55.92;94383.84;5052902;28;20547;-75
2024/02/20 00:52:35;;;;;;;47.42;26.75;;;;;;;6.42;56.21;94386.78;5052894;28;20029;-75
2024/02/20 00:55:00;;;;;;;47.67;27.05;;;;;;;6.47;56.18;94388.59;5053186;28;20132;-74
2024/02/20 00:57:26;;;;;;;44.10;25.42;;;;;;;6.23;56.24;94363.91;5054364;28;20155;-74
2024/02/20 00:59:52;;;;;;;41.10;24.17;;;;;;;6.33;56.33;94380.50;5054341;28;20021;-74
2024/02/20 01:02:18;;;;;;;49.28;27.67;;;;;;;6.18;56.42;94346.22;5054848;28;20017;-74
2024/02/20 01:04:44;;;;;;;44.40;27.33;;;;;;;6.50;56.34;94380.16;5054160;28;20039;-74
2024/02/20 01:07:10;;;;;;;48.75;26.73;;;;;;;6.32;56.43;94364.91;5054018;28;20409;-75
2024/02/20 01:09:36;;;;;;;42.47;25.80;;;;;;;6.42;56.85;94375.41;5054337;28;20047;-74
2024/02/20 01:12:01;;;;;;;47.47;28.00;;;;;;;6.44;56.65;94370.66;5054275;28;20021;-75
2024/02/20 01:14:27;;;;;;;48.72;29.17;;;;;;;6.13;56.33;94345.44;5054339;28;20025;-74
2024/02/20 01:16:52;;;;;;;52.28;27.70;;;;;;;6.16;57.11;94363.44;5054042;28;20031;-74
2024/02/20 01:19:18;;;;;;;51.08;28.17;;;;;;;6.05;57.51;94357.38;5053693;28;20025;-75
2024/02/20 01:21:43;;;;;;;53.50;28.50;;;;;;;6.17;57.15;94354.41;5053919;28;20056;-74
2024/02/20 01:24:08;;;;;;;45.65;25.85;;;;;;;6.01;56.83;94314.09;5054206;28;20559;-75
2024/02/20 01:26:34;;;;;;;49.05;28.10;;;;;;;6.12;56.59;94330.66;5054400;28;20104;-74
2024/02/20 01:28:59;;;;;;;43.97;26.85;;;;;;;6.27;56.24;94346.44;5053656;28;20498;-74
2024/02/20 01:31:28;;;;;;;45.65;28.15;;;;;;;6.27;56.09;94351.72;5053756;28;20051;-75
2024/02/20 01:33:53;;;;;;;52.67;28.88;;;;;;;6.35;55.78;94348.53;5053646;28;20033;-74
2024/02/20 01:36:19;;;;;;;48.42;28.15;;;;;;;6.32;56.07;94343.78;5053384;28;20032;-75
2024/02/20 01:38:46;;;;;;;45.80;28.33;;;;;;;6.33;55.34;94337.44;5053793;28;20039;-72
2024/02/20 01:41:11;;;;;;;47.33;27.30;;;;;;;6.12;56.25;94325.38;5053940;28;20056;-74
2024/02/20 01:43:37;;;;;;;52.97;28.83;;;;;;;6.29;56.19;94347.75;5053554;28;20494;-74
2024/02/20 01:46:04;;;;;;;43.58;27.85;;;;;;;6.36;56.11;94347.47;5053388;28;20037;-74
2024/02/20 01:48:29;;;;;;;52.45;31.05;;;;;;;6.11;56.57;94321.16;5052857;28;20025;-74
2024/02/20 01:50:55;;;;;;;55.05;29.45;;;;;;;6.13;56.88;94342.78;5053590;28;20029;-74
2024/02/20 01:53:22;;;;;;;48.53;28.45;;;;;;;5.83;56.75;94289.06;5054055;28;20024;-75
2024/02/20 01:55:48;;;;;;;44.25;27.38;;;;;;;6.10;56.94;94340.72;5053336;28;20521;-74
2024/02/20 01:58:14;;;;;;;47.67;26.95;;;;;;;6.18;56.91;94334.88;5053217;28;20052;-74
2024/02/20 02:00:39;;;;;;;54.15;30.63;;;;;;;6.21;56.46;94329.06;5053052;28;20064;-74
2024/02/20 02:03:05;;;;;;;50.80;29.88;;;;;;;6.02;56.87;94307.72;5053412;28;20033;-75
2024/02/20 02:05:30;;;;;;;54.80;30.30;;;;;;;6.12;57.31;94325.38;5053506;28;20021;-74
2024/02/20 02:07:59;;;;;;;48.35;29.05;;;;;;;6.24;57.31;94328.50;5052926;28;20123;-74
2024/02/20 02:10:24;;;;;;;47.15;26.45;;;;;;;6.30;56.57;94327.44;5053187;28;20498;-74
2024/02/20 02:12:50;;;;;;;52.53;28.90;;;;;;;6.20;56.83;94323.00;5052449;28;20082;-74
2024/02/20 02:15:16;;;;;;;49.28;26.77;;;;;;;5.94;56.76;94282.69;5053009;28;20486;-74
2024/02/20 02:17:41;;;;;;;47.42;28.10;;;;;;;6.24;56.90;94316.09;5053614;28;20466;-74
2024/02/20 02:20:07;;;;;;;51.10;27.50;;;;;;;6.31;56.70;94319.22;5052363;28;20525;-74
2024/02/20 02:22:33;;;;;;;46.13;26.27;;;;;;;6.35;56.36;94319.47;5053124;28;20548;-74
2024/02/20 02:24:58;;;;;;;46.47;27.80;;;;;;;6.23;56.42;94300.50;5052538;28;20040;-75
2024/02/20 02:27:24;;;;;;;54.03;28.83;;;;;;;6.05;56.29;94274.72;5052941;28;20033;-73
2024/02/20 02:29:50;;;;;;;45.13;27.55;;;;;;;6.21;56.60;94310.56;5052792;28;20536;-73
2024/02/20 02:32:15;;;;;;;47.58;28.75;;;;;;;5.75;57.66;94305.47;5053037;28;20147;-75
2024/02/20 02:34:41;;;;;;;56.75;33.28;;;;;;;5.50;59.08;94313.50;5052796;28;20033;-74
2024/02/20 02:37:07;;;;;;;53.20;30.45;;;;;;;5.46;59.23;94309.81;5052468;28;20099;-75
2024/02/20 02:39:32;;;;;;;52.83;32.67;;;;;;;5.85;58.60;94321.28;5052264;28;20040;-74
2024/02/20 02:41:57;;;;;;;49.55;30.15;;;;;;;6.04;58.24;94318.03;5052442;28;20083;-74
2024/02/20 02:44:23;;;;;;;53.50;29.33;;;;;;;5.95;57.96;94294.03;5052963;28;20059;-74
2024/02/20 02:46:49;;;;;;;51.80;30.33;;;;;;;6.10;57.85;94312.44;5052403;28;20387;-74
2024/02/20 02:49:14;;;;;;;50.65;28.63;;;;;;;6.31;57.47;94329.00;5051949;28;20040;-74
2024/02/20 02:51:40;;;;;;;45.30;27.27;;;;;;;6.18;56.76;94284.69;5052192;28;20568;-74
2024/02/20 02:54:05;;;;;;;52.45;28.27;;;;;;;6.35;56.84;94324.75;5052342;28;20036;-74
2024/02/20 02:56:31;;;;;;;54.63;28.88;;;;;;;6.36;56.77;94315.78;5052803;28;20537;-74
2024/02/20 02:58:59;;;;;;;51.40;28.63;;;;;;;6.21;56.66;94297.38;5052033;28;20501;-74
2024/02/20 03:01:28;;;;;;;50.55;28.70;;;;;;;6.35;56.98;94322.13;5051323;28;20131;-74
2024/02/20 03:03:54;;;;;;;48.80;27.60;;;;;;;6.39;56.59;94331.06;5052131;28;20124;-75
2024/02/20 03:06:19;;;;;;;56.55;27.50;;;;;;;6.37;56.81;94322.59;5052324;28;20432;-74
2024/02/20 03:08:45;;;;;;;50.50;27.95;;;;;;;6.24;56.70;94307.38;5052272;28;20020;-74
2024/02/20 03:11:17;;;;;;;49.22;27.20;;;;;;;6.35;56.94;94330.03;5051960;28;20151;-75
2024/02/20 03:13:43;;;;;;;53.60;27.77;;;;;;;6.30;56.26;94333.50;5052007;28;20071;-74
2024/02/20 03:16:10;;;;;;;53.83;30.92;;;;;;;6.39;56.51;94333.72;5051830;28;20141;-74
2024/02/20 03:18:42;;;;;;;50.70;28.17;;;;;;;6.49;55.79;94344.22;5051887;28;20539;-74
2024/02/20 03:21:07;;;;;;;54.33;30.30;;;;;;;6.25;55.92;94336.16;5051681;28;20030;-74
2024/02/20 03:23:33;;;;;;;50.58;28.95;;;;;;;6.31;56.18;94345.63;5052323;28;20032;-75
2024/02/20 03:25:59;;;;;;;62.03;31.83;;;;;;;6.13;56.44;94348.06;5051783;28;20033;-74
2024/02/20 03:28:25;;;;;;;48.70;28.73;;;;;;;6.13;56.12;94329.59;5051083;28;20104;-74
2024/02/20 03:30:51;;;;;;;54.40;30.85;;;;;;;6.22;56.06;94347.25;5051810;28;20600;-74
2024/02/20 03:33:17;;;;;;;61.15;32.08;;;;;;;6.24;56.21;94349.63;5051773;28;20025;-74
2024/02/20 03:35:43;;;;;;;59.92;29.67;;;;;;;5.98;56.31;94341.00;5051824;28;20055;-74
2024/02/20 03:38:09;;;;;;;49.03;29.02;;;;;;;6.08;56.73;94356.81;5051383;28;20061;-74
2024/02/20 03:40:34;;;;;;;60.90;30.73;;;;;;;6.25;56.03;94351.22;5051173;28;20041;-74
2024/02/20 03:43:02;;;;;;;54.80;30.80;;;;;;;6.22;55.93;94367.59;5050745;28;20588;-75
2024/02/20 03:45:27;;;;;;;53.70;30.48;;;;;;;6.18;55.90;94356.00;5051197;28;20029;-75
2024/02/20 03:47:54;;;;;;;53.05;28.80;;;;;;;6.02;56.93;94362.41;5051229;28;20397;-74
2024/02/20 03:50:20;;;;;;;50.08;27.42;;;;;;;5.95;57.29;94367.97;5051769;28;20104;-75
2024/02/20 03:52:45;;;;;;;52.17;28.88;;;;;;;5.83;57.86;94376.19;5051057;28;20067;-74
2024/02/20 03:55:11;;;;;;;60.65;30.00;;;;;;;5.84;58.27;94361.94;5051098;28;20029;-75
2024/02/20 03:57:36;;;;;;;46.47;25.77;;;;;;;5.74;58.07;94355.91;5051264;28;20064;-75
2024/02/20 04:00:11;;;;;;;48.20;25.85;;;;;;;5.76;57.85;94354.56;5050984;28;20017;-74
2024/02/20 04:02:42;;;;;;;43.53;24.88;;;;;;;5.76;58.55;94365.13;5051664;28;20067;-75
2024/02/20 04:05:11;;;;;;;49.00;27.25;;;;;;;5.96;58.06;94365.06;5051109;28;20493;-75
2024/02/20 04:07:41;;;;;;;45.92;25.38;;;;;;;5.98;57.59;94347.09;5050625;28;20486;-74
2024/02/20 04:10:12;;;;;;;47.63;27.05;;;;;;;6.24;57.32;94366.28;5050471;28;20028;-74
2024/02/20 04:12:37;;;;;;;46.90;25.88;;;;;;;6.36;56.99;94365.97;5050567;28;20036;-74
2024/02/20 04:15:07;;;;;;;54.83;29.67;;;;;;;6.32;56.64;94349.06;5050726;28;20604;-75
2024/02/20 04:17:32;;;;;;;54.58;28.85;;;;;;;6.43;56.53;94369.09;5051268;28;20013;-74
2024/02/20 04:20:02;;;;;;;47.22;27.20;;;;;;;6.41;56.08;94368.56;5050727;28;20037;-75
2024/02/20 04:22:30;;;;;;;52.58;29.15;;;;;;;6.22;56.28;94333.25;5050680;28;20501;-74
2024/02/20 04:24:56;;;;;;;45.60;28.42;;;;;;;6.38;56.47;94355.91;5050708;28;20045;-75
2024/02/20 04:27:21;;;;;;;53.20;30.67;;;;;;;6.51;56.24;94357.94;5050581;28;20031;-75
2024/02/20 04:29:46;;;;;;;54.03;30.77;;;;;;;6.61;55.86;94351.78;5051071;28;20021;-74
2024/02/20 04:32:12;;;;;;;45.72;26.05;;;;;;;6.58;55.75;94353.13;5050728;28;20116;-74
2024/02/20 04:34:38;;;;;;;46.85;27.10;;;;;;;6.64;55.62;94356.53;5050750;28;20082;-74
2024/02/20 04:37:03;;;;;;;40.78;23.75;;;;;;;6.60;55.44;94337.00;5050760;28;20498;-74
2024/02/20 04:39:29;;;;;;;43.22;23.40;;;;;;;6.58;55.77;94331.19;5050106;28;20037;-74
2024/02/20 04:41:54;;;;;;;46.55;25.65;;;;;;;6.67;55.61;94343.56;5050703;28;20486;-73
2024/02/20 04:44:19;;;;;;;46.00;25.67;;;;;;;6.51;55.64;94318.28;5051215;28;20021;-75
2024/02/20 04:46:45;;;;;;;42.60;26.30;;;;;;;6.69;55.34;94345.94;5050728;28;20086;-74
2024/02/20 04:49:10;;;;;;;44.47;28.08;;;;;;;6.58;55.40;94331.19;5050359;28;20421;-74
2024/02/20 04:51:36;;;;;;;47.65;27.73;;;;;;;6.57;55.02;94327.75;5050635;28;20032;-74
2024/02/20 04:54:02;;;;;;;48.13;26.70;;;;;;;6.68;55.50;94339.84;5050131;28;20036;-74
2024/02/20 04:56:27;;;;;;;42.20;23.95;;;;;;;6.62;55.06;94335.66;5050704;28;20033;-74
2024/02/20 04:58:53;;;;;;;44.22;25.80;;;;;;;6.52;55.06;94325.16;5050114;28;20029;-74
2024/02/20 05:01:18;;;;;;;40.92;24.10;;;;;;;6.64;55.15;94344.13;5049966;28;20083;-75
2024/02/20 05:03:46;;;;;;;44.97;23.50;;;;;;;6.32;55.12;94302.28;5050370;28;20071;-74
2024/02/20 05:06:12;;;;;;;37.92;21.38;;;;;;;6.56;55.28;94344.69;5050345;28;20091;-74
2024/02/20 05:08:37;;;;;;;41.10;23.90;;;;;;;6.54;55.16;94352.09;5050920;28;20715;-74
2024/02/20 05:11:03;;;;;;;41.95;23.73;;;;;;;6.50;55.05;94348.44;5050064;28;20398;-74
2024/02/20 05:13:28;;;;;;;41.58;23.92;;;;;;;6.51;55.23;94360.56;5050271;28;20572;-74
2024/02/20 05:15:54;;;;;;;42.85;26.02;;;;;;;6.51;55.29;94360.56;5049988;28;20070;-75
2024/02/20 05:18:19;;;;;;;44.42;25.95;;;;;;;6.40;55.04;94345.84;5050149;28;20394;-74
2024/02/20 05:20:44;;;;;;;41.88;23.95;;;;;;;6.54;54.94;94359.25;5050860;28;20053;-74
2024/02/20 05:23:10;;;;;;;42.70;24.70;;;;;;;6.55;54.95;94363.47;5050360;28;20033;-74
2024/02/20 05:25:35;;;;;;;44.05;25.33;;;;;;;6.46;55.15;94350.03;5053895;28;20083;-74
2024/02/20 05:28:00;;;;;;;42.13;24.60;;;;;;;6.48;55.26;94355.03;5053671;28;20040;-74
2024/02/20 05:30:26;;;;;;;46.83;26.98;;;;;;;6.43;55.32;94348.75;5054039;28;20037;-74
2024/02/20 05:32:51;;;;;;;55.45;32.72;;;;;;;6.48;55.13;94360.34;5053890;28;20432;-74
2024/02/20 05:35:16;;;;;;;52.50;28.63;;;;;;;6.38;54.87;94347.97;5053933;28;20031;-75
2024/02/20 05:37:43;;;;;;;52.17;29.77;;;;;;;6.39;55.39;94362.78;5053213;28;20117;-74
2024/02/20 05:40:15;;;;;;;50.65;28.65;;;;;;;6.34;55.34;94363.59;5053369;28;20131;-74
2024/02/20 05:42:41;;;;;;;50.63;27.45;;;;;;;6.30;55.03;94357.28;5053670;28;20029;-75
2024/02/20 05:45:07;;;;;;;45.53;27.40;;;;;;;6.25;55.08;94362.59;5053342;28;20394;-74
2024/02/20 05:47:33;;;;;;;50.35;26.65;;;;;;;6.25;55.25;94354.66;5054133;28;20029;-74
2024/02/20 05:49:58;;;;;;;49.20;24.67;;;;;;;6.34;55.21;94373.38;5053158;28;20040;-74
2024/02/20 05:52:24;;;;;;;42.80;23.23;;;;;;;6.35;55.02;94374.94;5052706;28;20041;-75
2024/02/20 05:54:49;;;;;;;52.53;28.83;;;;;;;6.33;55.29;94377.06;5053577;28;20065;-74
2024/02/20 05:57:15;;;;;;;47.92;26.30;;;;;;;6.10;56.09;94385.59;5052820;28;20498;-74
2024/02/20 05:59:40;;;;;;;55.85;29.98;;;;;;;5.88;55.90;94357.69;5053733;28;20378;-74
2024/02/20 06:02:06;;;;;;;48.63;27.40;;;;;;;6.07;55.86;94373.72;5052950;28;20398;-74
2024/02/20 06:04:31;;;;;;;46.30;27.63;;;;;;;6.22;55.73;94399.28;5052473;28;20517;-74
2024/02/20 06:06:57;;;;;;;60.20;30.50;;;;;;;6.22;55.73;94399.28;5052623;28;20033;-74
2024/02/20 06:09:22;;;;;;;56.53;30.27;;;;;;;6.23;55.71;94403.53;5052938;28;20029;-74
2024/02/20 06:11:48;;;;;;;51.63;28.90;;;;;;;6.28;55.92;94406.94;5053576;28;20108;-75
2024/02/20 06:14:13;;;;;;;53.72;29.20;;;;;;;6.32;56.00;94409.81;5052700;28;20489;-74
2024/02/20 06:16:41;;;;;;;53.97;27.05;;;;;;;6.31;56.13;94414.31;5052589;28;20040;-75
2024/02/20 06:19:07;;;;;;;50.53;29.45;;;;;;;6.22;56.20;94394.81;5052568;28;20044;-74
2024/02/20 06:21:33;;;;;;;58.72;33.05;;;;;;;6.20;56.11;94396.16;5052654;28;20603;-74
2024/02/20 06:23:58;;;;;;;61.78;34.25;;;;;;;6.34;56.53;94418.28;5052680;28;20020;-75
2024/02/20 06:26:24;;;;;;;68.03;35.67;;;;;;;6.06;56.80;94401.19;5052750;28;20071;-74
2024/02/20 06:28:49;;;;;;;64.97;35.92;;;;;;;6.07;57.14;94425.75;5052063;28;20029;-74
2024/02/20 06:31:15;;;;;;;72.10;36.38;;;;;;;6.20;57.20;94425.22;5052493;28;20033;-75
2024/02/20 06:33:44;;;;;;;62.55;36.05;;;;;;;6.12;56.83;94415.16;5052179;28;20485;-75
2024/02/20 06:36:10;;;;;;;68.72;35.55;;;;;;;6.23;56.91;94436.00;5051301;28;20037;-74
2024/02/20 06:38:36;;;;;;;70.10;36.45;;;;;;;5.99;57.19;94441.09;5053211;28;20040;-74
2024/02/20 06:41:02;;;;;;;60.10;33.90;;;;;;;5.85;57.42;94424.22;5052087;28;20041;-74
2024/02/20 06:43:27;;;;;;;64.97;37.33;;;;;;;5.83;57.50;94423.69;5052383;28;20037;-74
2024/02/20 06:45:53;;;;;;;69.55;35.97;;;;;;;6.00;57.36;94434.75;5052234;28;20052;-74
2024/02/20 06:48:20;;;;;;;75.82;37.70;;;;;;;5.91;57.81;94444.28;5051986;28;20573;-74
2024/02/20 06:50:45;;;;;;;71.70;36.35;;;;;;;5.96;57.53;94449.56;5052872;28;20028;-75
2024/02/20 06:53:11;;;;;;;69.43;36.22;;;;;;;6.13;57.35;94443.16;5051922;28;20393;-75
2024/02/20 06:55:36;;;;;;;66.20;37.17;;;;;;;6.02;57.44;94460.09;5051922;28;20037;-74
2024/02/20 06:58:01;;;;;;;65.93;36.22;;;;;;;6.07;57.20;94445.00;5051717;28;20029;-75
2024/02/20 07:00:27;;;;;;;68.35;37.35;;;;;;;5.86;57.54;94439.03;5051497;28;20041;-74
2024/02/20 07:02:52;;;;;;;71.05;37.17;;;;;;;6.21;57.02;94455.84;5052042;28;20029;-74
2024/02/20 07:05:18;;;;;;;76.18;39.38;;;;;;;6.31;56.58;94455.81;5052168;28;20424;-75
2024/02/20 07:07:46;;;;;;;65.18;35.53;;;;;;;6.23;56.90;94449.22;5051891;28;20631;-75
2024/02/20 07:10:12;;;;;;;67.70;37.20;;;;;;;6.34;56.87;94445.50;5051682;28;20566;-74
2024/02/20 07:12:37;;;;;;;65.93;37.33;;;;;;;6.23;56.66;94420.16;5051367;28;20129;-75
2024/02/20 07:15:06;;;;;;;70.43;36.80;;;;;;;6.30;56.48;94423.31;5051879;28;20025;-74
2024/02/20 07:17:33;;;;;;;71.68;38.00;;;;;;;6.42;56.14;94425.63;5051830;28;20074;-74
2024/02/20 07:19:59;;;;;;;64.43;37.05;;;;;;;6.54;55.60;94452.53;5051219;28;20025;-74
2024/02/20 07:22:26;;;;;;;69.60;35.95;;;;;;;6.26;55.75;94426.78;5051488;28;20405;-74
2024/02/20 07:24:51;;;;;;;75.25;40.35;;;;;;;6.40;56.27;94444.41;5051560;28;20044;-74
2024/02/20 07:27:16;;;;;;;69.63;38.92;;;;;;;6.13;56.73;94432.59;5051739;28;20033;-74
2024/02/20 07:29:42;;;;;;;65.60;36.35;;;;;;;6.15;57.17;94430.47;5051800;28;20079;-74
2024/02/20 07:32:10;;;;;;;68.80;38.78;;;;;;;6.07;57.16;94449.53;5051234;28;20532;-75
2024/02/20 07:34:38;;;;;;;64.22;34.53;;;;;;;6.21;57.46;94440.00;5051739;28;20037;-74
2024/02/20 07:37:04;;;;;;;64.55;36.85;;;;;;;6.28;57.49;94448.41;5051014;28;20029;-74
2024/02/20 07:39:29;;;;;;;65.97;35.63;;;;;;;6.40;56.62;94443.63;5051029;28;20041;-75
2024/02/20 07:41:54;;;;;;;91.68;51.47;;;;;;;6.26;56.88;94426.78;5051397;28;20188;-73
2024/02/20 07:44:20;;;;;;;75.47;42.30;;;;;;;6.30;56.83;94439.16;5051795;28;20048;-75
2024/02/20 07:46:47;;;;;;;71.45;37.72;;;;;;;6.16;57.09;94445.31;5050727;28;20033;-74
2024/02/20 07:49:12;;;;;;;67.38;36.30;;;;;;;6.32;56.78;94438.88;5051114;28;20029;-74
2024/02/20 07:51:38;;;;;;;61.08;35.53;;;;;;;6.54;55.84;94439.31;5051337;28;20167;-75
2024/02/20 07:54:03;;;;;;;58.25;32.35;;;;;;;6.52;56.24;94436.16;5051141;28;20069;-74
2024/02/20 07:56:30;;;;;;;63.03;33.60;;;;;;;6.50;55.98;94422.44;5051431;28;20104;-74
2024/02/20 07:58:56;;;;;;;47.15;27.73;;;;;;;6.59;55.61;94431.38;5050727;28;20040;-74
2024/02/20 08:01:22;;;;;;;41.42;23.95;;;;;;;6.34;54.17;94428.84;5050904;28;20029;-75
2024/02/20 08:03:48;;;;;;;44.60;24.35;;;;;;;6.34;55.23;94434.13;5050734;28;20118;-75
2024/02/20 08:06:17;;;;;;;37.83;22.75;;;;;;;6.14;54.76;94394.56;5050628;28;20029;-74
2024/02/20 08:08:43;;;;;;;39.83;23.90;;;;;;;6.19;54.53;94426.25;5051464;28;20017;-74
2024/02/20 08:11:09;;;;;;;38.35;22.85;;;;;;;6.19;55.45;94431.53;5050550;28;20112;-74
2024/02/20 08:13:34;;;;;;;41.67;23.95;;;;;;;5.77;55.16;94398.41;5050712;28;20581;-75
2024/02/20 08:16:00;;;;;;;42.80;22.83;;;;;;;6.14;55.52;94436.81;5050157;28;20043;-75
2024/02/20 08:18:25;;;;;;;38.00;24.27;;;;;;;6.14;54.99;94436.81;5050301;28;20033;-74
2024/02/20 08:20:51;;;;;;;45.58;25.60;;;;;;;6.29;55.12;94434.16;5050397;28;20116;-74
2024/02/20 08:23:16;;;;;;;42.33;25.80;;;;;;;6.41;55.15;94431.97;5051051;28;20032;-74
2024/02/20 08:25:41;;;;;;;36.60;22.52;;;;;;;6.42;54.11;94431.69;5050621;28;20063;-75
2024/02/20 08:28:07;;;;;;;42.15;21.92;;;;;;;5.94;55.03;94425.25;5050749;28;20029;-75
2024/02/20 08:30:33;;;;;;;40.72;23.58;;;;;;;5.96;55.15;94439.00;5050517;28;20464;-74
2024/02/20 08:32:58;;;;;;;45.10;24.30;;;;;;;5.92;55.62;94442.44;5050451;28;20474;-74
2024/02/20 08:35:23;;;;;;;41.78;25.38;;;;;;;5.74;55.82;94435.88;5051483;28;20033;-74
2024/02/20 08:37:49;;;;;;;39.72;24.27;;;;;;;5.77;56.16;94450.41;5050915;28;20425;-75
2024/02/20 08:40:15;;;;;;;45.22;25.77;;;;;;;5.45;56.98;94411.91;5050113;28;20041;-74
2024/02/20 08:42:40;;;;;;;42.15;24.67;;;;;;;4.65;58.70;94402.13;5050645;28;20375;-74
2024/02/20 08:45:07;;;;;;;46.50;24.38;;;;;;;5.08;58.98;94449.13;5051017;28;20066;-75
2024/02/20 08:47:32;;;;;;;51.72;28.00;;;;;;;5.50;58.84;94448.03;5051093;28;20021;-74
2024/02/20 08:49:58;;;;;;;43.45;25.17;;;;;;;5.56;58.67;94450.41;5050419;28;20063;-74
2024/02/20 08:52:23;;;;;;;48.67;27.17;;;;;;;5.45;58.30;94448.03;5050546;28;20119;-74
2024/02/20 08:54:49;;;;;;;49.05;26.20;;;;;;;5.67;58.01;94438.00;5050541;28;20060;-75
2024/02/20 08:57:14;;;;;;;49.38;25.40;;;;;;;5.45;58.17;94437.50;5050068;28;20175;-74
2024/02/20 08:59:39;;;;;;;47.70;25.48;;;;;;;5.86;57.42;94411.81;5053047;28;20367;-74
2024/02/20 09:02:06;;;;;;;44.05;25.98;;;;;;;6.11;56.19;94429.44;5054134;28;20596;-74
2024/02/20 09:04:32;;;;;;;44.33;25.63;;;;;;;6.50;55.90;94440.13;5053308;28;20718;-75
2024/02/20 09:06:58;;;;;;;40.28;26.83;;;;;;;6.81;55.30;94447.63;5053722;28;20119;-74
2024/02/20 09:09:24;;;;;;;38.40;24.15;;;;;;;7.04;54.72;94443.53;5054117;28;20056;-75
2024/02/20 09:11:49;;;;;;;46.25;26.80;;;;;;;7.00;53.45;94428.44;5054350;28;20103;-73
2024/02/20 09:14:21;;;;;;;41.67;24.10;;;;;;;7.20;53.09;94430.94;5054155;28;20108;-75
2024/02/20 09:16:47;;;;;;;41.28;22.58;;;;;;;7.24;52.88;94434.63;5053796;28;20124;-74
2024/02/20 09:19:12;;;;;;;43.45;21.60;;;;;;;7.21;53.34;94428.03;5053889;28;20117;-74
2024/02/20 09:21:38;;;;;;;32.15;19.60;;;;;;;7.32;50.79;94435.91;5054148;28;20494;-74
2024/02/20 09:24:04;;;;;;;37.13;24.48;;;;;;;7.23;50.47;94441.00;5054310;28;20095;-74
2024/02/20 09:26:31;;;;;;;23.38;15.45;;;;;;;7.27;49.25;94432.22;5054178;28;20494;-74
2024/02/20 09:28:56;;;;;;;25.13;14.35;;;;;;;7.16;48.15;94411.41;5053716;28;20045;-74
2024/02/20 09:31:22;;;;;;;30.20;19.38;;;;;;;7.03;48.41;94436.66;5053452;28;20031;-74
2024/02/20 09:33:48;;;;;;;44.50;25.33;;;;;;;6.71;52.27;94420.44;5053707;28;20033;-74
2024/02/20 09:36:14;;;;;;;41.80;25.05;;;;;;;6.56;53.44;94412.59;5054052;28;20033;-74
2024/02/20 09:38:39;;;;;;;39.67;23.08;;;;;;;6.75;53.50;94424.16;5053941;28;20643;-75
2024/02/20 09:41:07;;;;;;;44.03;25.63;;;;;;;6.57;53.54;94422.13;5053257;28;20466;-74
2024/02/20 09:43:32;;;;;;;42.10;24.50;;;;;;;5.79;55.47;94417.38;5053583;28;20068;-74
2024/02/20 09:46:07;;;;;;;48.17;25.92;;;;;;;6.10;55.55;94430.50;5053261;28;20072;-74
2024/02/20 09:48:33;;;;;;;38.08;20.90;;;;;;;6.16;55.32;94426.81;5053459;28;20063;-74
2024/02/20 09:51:03;;;;;;;43.50;21.77;;;;;;;6.33;54.94;94432.53;5053484;28;20025;-74
2024/02/20 09:53:30;;;;;;;31.58;21.85;;;;;;;6.18;54.62;94429.97;5053933;28;20040;-74
2024/02/20 09:55:57;;;;;;;37.20;21.95;;;;;;;6.05;54.84;94438.44;5053375;28;20033;-74
2024/02/20 09:58:23;;;;;;;37.25;20.83;;;;;;;6.34;54.43;94424.34;5053237;28;20502;-75
2024/02/20 10:00:52;;;;;;;36.08;20.80;;;;;;;6.30;53.39;94418.03;5052997;28;20044;-74
2024/02/20 10:03:17;;;;;;;32.72;20.00;;;;;;;6.47;53.54;94424.81;5053149;28;20068;-74
2024/02/20 10:05:46;;;;;;;30.92;19.35;;;;;;;6.50;52.48;94389.94;5053518;28;20057;-74
2024/02/20 10:08:12;;;;;;;28.15;16.85;;;;;;;6.77;50.53;94417.50;5053394;28;20094;-74
2024/02/20 10:10:39;;;;;;;28.23;16.80;;;;;;;6.59;50.58;94410.22;5052461;28;20455;-74
2024/02/20 10:13:05;;;;;;;22.98;15.65;;;;;;;6.98;50.44;94410.22;5053134;28;20041;-74
2024/02/20 10:15:31;;;;;;;29.15;17.00;;;;;;;6.74;49.76;94401.41;5052824;28;20048;-74
2024/02/20 10:18:01;;;;;;;28.23;16.90;;;;;;;6.50;50.28;94401.28;5052469;28;20029;-74
2024/02/20 10:20:28;;;;;;;34.45;18.08;;;;;;;6.70;50.28;94384.53;5052848;28;20033;-74
2024/02/20 10:23:03;;;;;;;30.17;17.58;;;;;;;6.60;50.38;94398.59;5052914;28;20568;-74
2024/02/20 10:25:28;;;;;;;25.17;14.85;;;;;;;6.55;49.36;94398.63;5052994;28;20079;-75
2024/02/20 10:27:53;;;;;;;27.52;16.35;;;;;;;6.34;50.12;94402.41;5052380;28;20033;-75
2024/02/20 10:30:19;;;;;;;31.92;17.25;;;;;;;6.46;50.55;94394.94;5052699;28;20561;-74
2024/02/20 10:32:44;;;;;;;26.63;15.85;;;;;;;6.76;49.05;94397.41;5053328;28;20049;-74
2024/02/20 10:35:10;;;;;;;29.58;17.45;;;;;;;6.79;49.15;94388.94;5052360;28;20472;-74
2024/02/20 10:37:37;;;;;;;22.20;15.20;;;;;;;7.04;47.60;94379.25;5052634;28;20444;-74
2024/02/20 10:40:10;;;;;;;25.17;14.57;;;;;;;6.98;47.62;94390.94;5052061;28;20045;-74
2024/02/20 10:42:37;;;;;;;20.50;14.18;;;;;;;7.20;46.63;94385.97;5052076;28;20069;-74
2024/02/20 10:45:07;;;;;;;19.60;12.40;;;;;;;6.85;45.58;94381.75;5052297;28;20029;-74
2024/02/20 10:47:36;;;;;;;17.30;12.88;;;;;;;6.76;44.43;94357.75;5052927;28;20035;-74
2024/02/20 10:50:05;;;;;;;23.27;13.55;;;;;;;6.68;43.58;94366.28;5052135;28;20035;-75
2024/02/20 10:52:30;;;;;;;15.80;11.90;;;;;;;6.54;43.66;94336.25;5052395;28;20029;-74
2024/02/20 10:54:57;;;;;;;18.65;11.85;;;;;;;6.87;44.74;94369.06;5052614;28;20545;-74
2024/02/20 10:57:22;;;;;;;26.88;13.57;;;;;;;6.52;44.99;94333.09;5052091;28;20398;-74
2024/02/20 10:59:50;;;;;;;17.40;12.10;;;;;;;6.88;45.11;94357.41;5052752;28;20021;-74
2024/02/20 11:02:16;;;;;;;21.52;13.63;;;;;;;6.78;44.23;94329.19;5052742;28;20429;-74
2024/02/20 11:04:43;;;;;;;13.75;9.60;;;;;;;6.66;42.89;94367.59;5052084;28;20044;-75
2024/02/20 11:07:09;;;;;;;13.18;9.13;;;;;;;6.78;41.81;94360.94;5051501;28;20033;-74
2024/02/20 11:09:34;;;;;;;16.15;10.52;;;;;;;6.93;42.62;94330.16;5051283;28;20032;-74
2024/02/20 11:12:09;;;;;;;14.55;10.68;;;;;;;6.85;42.77;94339.44;5033982;28;20047;-74
2024/02/20 11:14:35;;;;;;;19.95;12.60;;;;;;;6.88;43.55;94360.06;5051914;28;20021;-74
2024/02/20 11:17:00;;;;;;;16.52;11.20;;;;;;;6.94;43.28;94358.19;5051807;28;20040;-74
2024/02/20 11:19:25;;;;;;;21.15;11.32;;;;;;;6.95;42.32;94349.16;5050983;28;20437;-74